WEATHER DATA

TODAY
Time Temp. Dewp. Hum. Wind dir Wind speed Wind gust Bar. 1h Prec. 24h Prec.
00:01 21.1 10.3 50 204 3.3 11.1 999.3 0.0000 0.0000
00:11 21 10.2 50 190 3.6 10.3 999.1 0.0000 0.0000
00:21 20.9 10.1 50 221 3.1 10.3 999 0.0000 0.0000
00:31 20.9 10.4 51 195 3.6 9.4 999 0.0000 0.0000
00:42 20.7 10.2 51 215 3.3 10.6 998.8 0.0000 0.0000
00:52 20.6 10.1 51 191 3.6 8.6 999.1 0.0000 0.0000
01:01 20.5 10 51 192 3.9 10 998.9 0.0000 0.0000
01:12 20.4 10.2 52 185 4.2 10 998.8 0.0000 0.0000
01:22 20.2 10 52 175 4.2 10.6 998.7 0.0000 0.0000
01:32 20.1 10.2 53 205 3.3 11.1 998.7 0.0000 0.0000
01:42 19.9 10 53 191 3.9 9.7 998.7 0.0000 0.0000
01:52 19.8 10 53 218 3.1 8.3 998.9 0.0000 0.0000
02:02 19.6 10 54 234 2.8 7.5 998.7 0.0000 0.0000
02:12 19.5 10 54 215 3.1 7.5 998.9 0.0000 0.0000
02:22 19.3 10 55 242 2.8 5.3 998.8 0.0000 0.0000
02:33 19.1 9.9 55 241 2.8 5.3 998.9 0.0000 0.0000
02:43 19 9.8 55 238 2.5 4.2 998.9 0.0000 0.0000
02:52 18.8 9.8 56 225 2.8 5.3 998.9 0.0000 0.0000
03:03 18.6 9.7 56 238 2.5 3.9 999.1 0.0000 0.0000
03:13 18.4 9.7 57 204 2.8 4.4 999.1 0.0000 0.0000
03:23 18.3 9.9 58 207 2.2 3.3 999 0.0000 0.0000
03:33 18.1 10 59 189 2.5 3.9 999.1 0.0000 0.0000
03:43 17.9 9.8 59 185 2.8 5 999 0.0000 0.0000
03:53 17.7 9.8 60 192 2.5 5.3 999 0.0000 0.0000
04:03 17.5 9.9 61 215 2.8 5.6 999 0.0000 0.0000
04:14 17.4 9.6 60 234 2.8 7.8 999 0.0000 0.0000
04:24 17.3 9.7 61 226 2.5 5 998.9 0.0000 0.0000
04:33 17.2 9.6 61 260 2.8 5.3 999.1 0.0000 0.0000
04:43 17.1 9.5 61 280 3.1 9.4 998.9 0.0000 0.0000
04:58 17 9.7 62 315 4.4 9.4 999.5 0.0000 0.0000
05:08 16.7 9.9 64 345 5 10.8 999.5 0.0000 0.0000
05:18 16.6 9.5 63 328 3.9 6.7 999.5 0.0000 0.0000
05:28 16.5 9.9 65 340 4.7 7.2 999.7 0.0000 0.0000
05:38 16.4 10.7 69 315 5.3 7.2 999.7 0.0000 0.0000
05:48 16.6 11.5 72 298 5 10.8 999.9 0.0000 0.0000
05:59 16.9 12.2 74 250 2.8 5.3 999.9 0.0000 0.0000
06:09 17.1 12.8 76 267 3.6 8.1 999.8 0.0000 0.0000
06:19 17.5 13 75 236 2.8 5.8 999.9 0.0000 0.0000
06:29 17.6 13.3 76 273 4.2 8.6 1000 0.0000 0.0000
06:39 17.7 13.6 77 270 3.6 6.9 1000.1 0.0000 0.0000
06:49 17.8 13.7 77 267 3.6 10.8 1000 0.0000 0.0000
07:01 17.9 13.8 77 275 4.2 12.5 1000.1 0.0000 0.0000
07:11 18 13.9 77 251 3.6 8.9 1000.1 0.0000 0.0000
07:21 18.1 14 77 233 2.5 4.7 1000.1 0.0000 0.0000
07:27 18.2 13.9 76 229 2.5 6.9 1000.2 0.0000 0.0000
07:38 18.5 14 75 239 2.5 4.7 1000.2 0.0000 0.0000
07:47 18.8 14.3 75 231 2.5 5.3 1000.1 0.0000 0.0000
07:57 19.1 14.4 74 254 2.8 8.6 1000.2 0.0000 0.0000
08:08 19.2 14.5 74 242 2.5 4.2 1000.3 0.0000 0.0000
08:18 19.5 14.5 73 250 2.5 5.8 1000.2 0.0000 0.0000
08:28 19.7 14.5 72 254 3.1 8.9 1000.3 0.0000 0.0000
08:38 19.9 14.5 71 250 2.5 7.2 1000.2 0.0000 0.0000
08:48 20.2 14.8 71 240 2.5 3.9 1000.4 0.0000 0.0000
08:58 20.5 14.8 70 240 2.2 3.6 1000.5 0.0000 0.0000
09:08 20.6 14.9 70 237 2.2 3.3 1000.3 0.0000 0.0000
09:19 20.8 14.9 69 240 2.2 3.3 1000.1 0.0000 0.0000
09:29 20.9 15 69 240 2.2 3.9 1000.2 0.0000 0.0000
09:38 20.9 15.2 70 240 2.2 3.3 1000.2 0.0000 0.0000
09:48 21 15.1 69 242 2.5 3.6 1000.4 0.0000 0.0000
09:59 21.2 15.1 68 239 2.2 3.3 1000.3 0.0000 0.0000
10:09 21.4 15 67 244 2.2 3.3 1000.3 0.0000 0.0000
10:19 21.6 15.2 67 234 2.2 4.4 1000.3 0.0000 0.0000
10:29 21.8 14.9 65 237 2.2 3.3 1000.8 0.0000 0.0000
10:39 21.6 15 66 236 2.5 4.4 1000.5 0.0000 0.0000
10:49 21.7 14.8 65 238 2.5 3.3 1000.4 0.0000 0.0000
10:54 21.6 14.7 65 244 2.5 10.3 1000.4 0.0000 0.0000
11:04 21.8 14.9 65 236 2.5 3.9 1000.4 0.0000 0.0000
11:14 21.8 14.7 64 241 2.5 3.3 1000.6 0.0000 0.0000
11:24 22.2 15.1 64 240 2.2 3.3 1000.6 0.0000 0.0000
11:34 22.4 15 63 237 2.2 3.3 1000.3 0.0000 0.0000
11:45 22.5 15.1 63 238 2.2 3.6 1000.4 0.0000 0.0000
11:54 22.7 15.1 62 231 2.2 3.6 1000.4 0.0000 0.0000
12:04 22.8 14.9 61 238 2.5 3.3 1000.3 0.0000 0.0000
12:15 22.7 15.1 62 238 2.2 4.2 1000.4 0.0000 0.0000
12:25 22.7 15.1 62 236 2.2 3.6 1000.3 0.0000 0.0000
12:35 23 15.3 62 237 2.2 3.3 1000.3 0.0000 0.0000
12:44 23.5 15.3 60 239 2.5 3.6 1000.2 0.0000 0.0000
12:55 24 15.8 60 231 2.5 3.6 1000.1 0.0000 0.0000
13:05 24 15.2 58 236 2.2 3.6 1000.2 0.0000 0.0000
13:15 24.3 15.5 58 233 2.5 3.3 1000 0.0000 0.0000
13:25 24.5 15.4 57 237 2.5 3.3 1000 0.0000 0.0000
13:35 24.6 15.5 57 236 2.5 4.4 1000 0.0000 0.0000
13:45 25 15.3 55 229 2.5 3.9 999.8 0.0000 0.0000
13:55 25.4 16 56 240 2.5 3.9 999.6 0.0000 0.0000
14:06 25.4 15.7 55 238 2.5 4.2 999.4 0.0000 0.0000
14:16 25.3 15.9 56 231 2.5 5 999.4 0.0000 0.0000
14:26 25.7 16.3 56 244 2.8 4.7 999.4 0.0000 0.0000
14:36 25.6 16.2 56 236 2.5 4.7 999.2 0.0000 0.0000
14:46 25.7 16.3 56 235 2.5 4.7 999 0.0000 0.0000
14:56 25.7 16.3 56 240 2.5 4.2 998.9 0.0000 0.0000
15:06 25.6 15.9 55 236 2.5 4.4 998.8 0.0000 0.0000
15:17 25.8 16.1 55 239 2.8 4.7 998.7 0.0000 0.0000
15:26 26 16.5 56 238 2.8 5 998.5 0.0000 0.0000
15:36 25.8 16.9 58 241 2.8 5 998.4 0.0000 0.0000
15:46 25.4 16.8 59 235 2.5 3.9 998.1 0.0000 0.0000
15:57 25.2 16.9 60 231 2.5 3.9 998 0.0000 0.0000
16:07 25 16.7 60 234 2.5 4.2 998.2 0.0000 0.0000

DAY STATISTIC

2021-05-12
TEMPERATURE
AVERAGE
20.8
HIGH
26.0
15:26
LOW
16.4
05:38
PRESSURE
AVERAGE
999.6
HIGH
1000.8
10:29
LOW
998.0
15:57
DEWPOINT
AVERAGE
13.2
HIGH
16.9
15:36
LOW
9.5
04:43
HUMIDITY
AVERAGE
62
HIGH
77
06:39
LOW
50
00:01
WIND SPEED
AVERAGE
2.9
HIGH
5.3
05:38
WIND GUST
AVERAGE
5.9
HIGH
12.5
07:01
WIND DIRECTION
PREVAILING
SW
68%
N
2.1
NE
0.0
E
0.0
SE
0.0
S
12.4
SW
68.0
W
13.4
NW
4.1
PRECIPITATION
RAIN HOUR
0.0
RAIN DAY
0.0
TEMPERATURE (°C)
LOW
16.4
HIGH
26.0
AVERAGE
20.8
PRESSURE (hpa)
LOW
998.0
HIGH
1000.8
AVERAGE
999.6
DEVICE